createdAt,value
2022-09-14T00:01:25.416Z,66.90
2022-09-14T00:04:04.345Z,99.90
2022-09-14T00:06:31.442Z,64.50
2022-09-14T00:09:00.959Z,80.00
2022-09-14T00:11:30.470Z,76.10
2022-09-14T00:13:58.978Z,93.50
2022-09-14T00:16:34.400Z,75.30
2022-09-14T00:19:06.122Z,99.90
2022-09-14T00:21:35.327Z,84.80
2022-09-14T00:24:02.434Z,87.00
2022-09-14T00:26:29.383Z,86.80
2022-09-14T00:28:58.521Z,82.80
2022-09-14T00:31:26.359Z,84.80
2022-09-14T00:33:53.982Z,83.20
2022-09-14T00:36:26.613Z,79.80
2022-09-14T00:38:56.691Z,99.80
2022-09-14T00:41:27.493Z,88.00
2022-09-14T00:43:59.085Z,99.90
2022-09-14T00:46:29.619Z,79.90
2022-09-14T00:49:00.246Z,86.50
2022-09-14T00:51:29.338Z,99.90
2022-09-14T00:53:56.394Z,99.90
2022-09-14T00:56:23.333Z,90.30
2022-09-14T00:58:51.980Z,89.50
2022-09-14T01:01:19.548Z,99.90
2022-09-14T01:03:46.444Z,84.00
2022-09-14T01:06:31.182Z,91.10
2022-09-14T01:09:33.486Z,93.00
2022-09-14T01:12:20.519Z,96.50
2022-09-14T01:14:50.553Z,99.90
2022-09-14T01:17:39.700Z,99.90
2022-09-14T01:20:22.372Z,99.90
2022-09-14T01:23:10.056Z,99.90
2022-09-14T01:25:46.054Z,99.90
2022-09-14T01:28:22.643Z,99.90
2022-09-14T01:30:53.692Z,99.90
2022-09-14T01:33:36.216Z,99.90
2022-09-14T01:36:06.782Z,99.90
2022-09-14T01:38:45.355Z,99.90
2022-09-14T01:41:15.330Z,99.90
2022-09-14T01:43:50.496Z,99.90
2022-09-14T01:46:21.222Z,99.90
2022-09-14T01:49:16.516Z,99.90
2022-09-14T01:52:06.271Z,99.90
2022-09-14T01:55:23.146Z,99.90
2022-09-14T01:58:05.950Z,99.90
2022-09-14T02:00:33.547Z,99.90
2022-09-14T02:03:11.041Z,99.90
2022-09-14T02:05:51.132Z,99.90
2022-09-14T02:08:18.346Z,99.90
2022-09-14T02:10:45.257Z,99.90
2022-09-14T02:13:12.327Z,99.90
2022-09-14T02:15:39.627Z,99.90
2022-09-14T02:18:06.613Z,99.90
2022-09-14T02:20:44.689Z,99.90
2022-09-14T02:23:11.736Z,99.90
2022-09-14T02:25:41.121Z,99.90
2022-09-14T02:28:08.290Z,99.90
2022-09-14T02:31:06.421Z,99.90
2022-09-14T02:33:53.203Z,99.90
2022-09-14T02:36:40.295Z,99.90
2022-09-14T02:39:37.928Z,99.90
2022-09-14T02:42:26.576Z,99.90
2022-09-14T02:44:58.848Z,99.90
2022-09-14T02:47:33.204Z,99.90
2022-09-14T02:50:09.183Z,99.90
2022-09-14T02:53:00.723Z,99.90
2022-09-14T02:55:34.857Z,99.90
2022-09-14T02:58:08.078Z,99.90
2022-09-14T03:00:41.140Z,99.90
2022-09-14T03:03:10.327Z,99.90
2022-09-14T03:05:37.352Z,99.90
2022-09-14T03:08:05.712Z,99.90
2022-09-14T03:10:33.871Z,99.90
2022-09-14T03:13:01.175Z,99.90
2022-09-14T03:15:28.774Z,99.90
2022-09-14T03:17:56.061Z,99.90
2022-09-14T03:20:25.718Z,99.90
2022-09-14T03:22:53.074Z,99.90
2022-09-14T03:25:20.781Z,99.90
2022-09-14T03:27:51.980Z,99.90
2022-09-14T03:30:19.635Z,99.90
2022-09-14T03:32:46.886Z,99.90
2022-09-14T03:35:15.773Z,99.90
2022-09-14T03:37:44.507Z,99.90
2022-09-14T03:40:17.999Z,99.90
2022-09-14T03:42:50.289Z,99.90
2022-09-14T03:45:18.847Z,99.90
2022-09-14T03:47:46.886Z,99.90
2022-09-14T03:50:15.284Z,99.90
2022-09-14T03:52:42.415Z,99.90
2022-09-14T03:55:10.203Z,99.90
2022-09-14T03:57:37.539Z,99.90
2022-09-14T04:00:06.388Z,99.90
2022-09-14T04:02:38.373Z,99.90
2022-09-14T04:05:06.454Z,99.90
2022-09-14T04:07:33.637Z,99.90
2022-09-14T04:10:00.525Z,99.90
2022-09-14T04:12:27.585Z,99.90
2022-09-14T04:14:54.516Z,99.90
2022-09-14T04:17:24.769Z,99.90
2022-09-14T04:19:51.702Z,99.90
2022-09-14T04:22:18.621Z,99.90
2022-09-14T04:24:45.506Z,99.90
2022-09-14T04:27:12.296Z,99.90
2022-09-14T04:29:39.247Z,99.90
2022-09-14T04:32:06.284Z,99.90
2022-09-14T04:34:33.161Z,99.90
2022-09-14T04:37:00.031Z,99.90
2022-09-14T04:39:27.073Z,99.90
2022-09-14T04:41:53.963Z,99.90
2022-09-14T04:44:20.797Z,99.90
2022-09-14T04:46:47.687Z,99.90
2022-09-14T04:49:18.996Z,99.90
2022-09-14T04:51:45.926Z,99.90
2022-09-14T04:54:15.484Z,99.90
2022-09-14T04:56:42.793Z,99.90
2022-09-14T04:59:10.274Z,99.90
2022-09-14T05:01:40.566Z,99.90
2022-09-14T05:04:09.225Z,99.90
2022-09-14T05:06:38.366Z,1.00
2022-09-14T05:09:10.081Z,99.90
2022-09-14T05:11:37.694Z,99.90
2022-09-14T05:14:05.251Z,1.00
2022-09-14T05:16:37.304Z,1.00
2022-09-14T05:19:06.663Z,1.00
2022-09-14T05:21:35.973Z,1.00
2022-09-14T05:24:12.553Z,1.00
2022-09-14T05:26:39.507Z,1.00
2022-09-14T05:29:06.413Z,1.00
2022-09-14T05:31:33.766Z,1.00
2022-09-14T05:34:00.881Z,1.00
2022-09-14T05:36:27.766Z,1.00
2022-09-14T05:38:54.797Z,1.00
2022-09-14T05:41:21.794Z,1.00
2022-09-14T05:43:48.680Z,1.00
2022-09-14T05:46:20.288Z,1.00
2022-09-14T05:48:48.387Z,1.00
2022-09-14T05:51:17.247Z,1.00
2022-09-14T05:53:49.302Z,1.00
2022-09-14T05:56:17.809Z,1.00
2022-09-14T05:58:45.646Z,1.00
2022-09-14T06:01:20.271Z,1.00
2022-09-14T06:03:48.362Z,1.00
2022-09-14T06:06:17.956Z,1.00
2022-09-14T06:08:45.504Z,1.00
2022-09-14T06:11:18.336Z,1.00
2022-09-14T06:13:46.795Z,1.00
2022-09-14T06:16:19.008Z,1.00
2022-09-14T06:18:47.371Z,1.00
2022-09-14T06:21:19.262Z,1.00
2022-09-14T06:23:47.309Z,1.00
2022-09-14T06:26:14.243Z,1.00
2022-09-14T06:28:41.901Z,1.00
2022-09-14T06:31:12.319Z,1.00
2022-09-14T06:33:43.971Z,1.00
2022-09-14T06:36:12.858Z,1.00
2022-09-14T06:38:41.018Z,1.00
2022-09-14T06:41:12.778Z,1.00
2022-09-14T06:43:42.221Z,1.00
2022-09-14T06:46:19.539Z,1.00
2022-09-14T06:48:52.290Z,1.00
2022-09-14T06:51:24.306Z,1.00
2022-09-14T06:53:52.232Z,1.00
2022-09-14T06:56:19.658Z,1.00
2022-09-14T06:58:46.975Z,1.00
2022-09-14T07:01:15.970Z,1.00
2022-09-14T07:03:44.637Z,1.00
2022-09-14T07:06:14.136Z,1.00
2022-09-14T07:08:41.465Z,1.00
2022-09-14T07:11:10.936Z,1.00
2022-09-14T07:13:38.194Z,1.00
2022-09-14T07:16:05.845Z,1.00
2022-09-14T07:18:33.084Z,1.00
2022-09-14T07:21:17.383Z,1.00
2022-09-14T07:23:45.966Z,1.00
2022-09-14T07:26:21.476Z,1.00
2022-09-14T07:28:51.163Z,1.00
2022-09-14T07:31:22.603Z,1.00
2022-09-14T07:33:53.825Z,8.40
2022-09-14T07:36:24.991Z,1.00
2022-09-14T07:38:53.459Z,12.00
2022-09-14T07:41:22.244Z,1.00
2022-09-14T07:43:51.165Z,2.20
2022-09-14T07:46:18.614Z,1.00
2022-09-14T07:48:45.569Z,1.00
2022-09-14T07:51:12.897Z,1.00
2022-09-14T07:53:44.510Z,1.00
2022-09-14T07:56:13.243Z,1.00
2022-09-14T07:58:40.483Z,1.00
2022-09-14T08:01:11.840Z,1.00
2022-09-14T08:03:40.748Z,7.40
2022-09-14T08:06:10.766Z,1.00
2022-09-14T08:08:41.716Z,1.00
2022-09-14T08:11:11.225Z,1.00
2022-09-14T08:13:44.418Z,1.00
2022-09-14T08:16:12.698Z,4.40
2022-09-14T08:18:40.017Z,99.90
2022-09-14T08:21:13.084Z,99.90
2022-09-14T08:23:40.580Z,99.90
2022-09-14T08:26:13.246Z,99.90
2022-09-14T08:28:41.160Z,22.70
2022-09-14T08:31:17.947Z,99.90
2022-09-14T08:33:47.196Z,99.90
2022-09-14T08:36:16.267Z,37.70
2022-09-14T08:38:43.414Z,99.90
2022-09-14T08:41:28.776Z,93.40
2022-09-14T08:44:05.144Z,1.00
2022-09-14T08:46:36.404Z,99.90
2022-09-14T08:49:16.143Z,99.90
2022-09-14T08:51:43.112Z,99.90
2022-09-14T08:54:10.336Z,1.00
2022-09-14T08:56:41.653Z,1.00
2022-09-14T08:59:17.921Z,72.20
2022-09-14T09:02:15.426Z,1.00
2022-09-14T09:04:50.506Z,1.00
2022-09-14T09:07:31.792Z,1.00
2022-09-14T09:09:59.712Z,1.00
2022-09-14T09:12:50.607Z,1.00
2022-09-14T09:15:20.810Z,99.90
2022-09-14T09:17:56.015Z,99.90
2022-09-14T09:20:46.069Z,1.00
2022-09-14T09:23:16.207Z,99.90
2022-09-14T09:26:04.357Z,1.00
2022-09-14T09:28:32.039Z,1.00
2022-09-14T09:31:04.862Z,1.00
2022-09-14T09:33:51.760Z,1.00
2022-09-14T09:36:22.280Z,1.00
2022-09-14T09:38:49.222Z,48.80
2022-09-14T09:41:23.682Z,1.00
2022-09-14T09:44:06.701Z,1.00
2022-09-14T09:46:37.535Z,99.90
2022-09-14T09:49:17.173Z,99.90
2022-09-14T09:51:44.682Z,1.00
2022-09-14T09:54:15.261Z,99.90
2022-09-14T09:56:53.486Z,1.00
2022-09-14T09:59:31.062Z,1.00
2022-09-14T10:02:22.308Z,1.00
2022-09-14T10:05:33.901Z,1.00
2022-09-14T10:08:11.278Z,99.90
2022-09-14T10:10:42.908Z,99.90
2022-09-14T10:13:28.816Z,99.90
2022-09-14T10:16:14.185Z,34.20
2022-09-14T10:18:49.070Z,1.00
2022-09-14T10:21:21.251Z,99.90
2022-09-14T10:24:07.197Z,1.00
2022-09-14T10:26:36.215Z,1.00
2022-09-14T10:29:27.706Z,99.90
2022-09-14T10:32:02.207Z,1.00
2022-09-14T10:34:29.547Z,1.00
2022-09-14T10:37:09.550Z,1.00
2022-09-14T10:39:48.748Z,1.00
2022-09-14T10:42:40.855Z,1.00
2022-09-14T10:45:22.836Z,1.00
2022-09-14T10:48:18.269Z,1.00
2022-09-14T10:51:23.381Z,1.00
2022-09-14T10:54:13.991Z,99.90
2022-09-14T10:57:17.432Z,99.90
2022-09-14T11:00:18.771Z,1.00
2022-09-14T11:03:16.307Z,1.00
2022-09-14T11:05:57.913Z,52.10
2022-09-14T11:08:45.172Z,1.00
2022-09-14T11:11:24.198Z,41.50
2022-09-14T11:14:13.042Z,1.00
2022-09-14T11:16:54.100Z,1.00
2022-09-14T11:20:00.698Z,1.00
2022-09-14T11:22:42.107Z,1.00
2022-09-14T11:25:28.796Z,1.00
2022-09-14T11:28:00.707Z,1.00
2022-09-14T11:30:40.920Z,99.90
2022-09-14T11:33:11.353Z,1.00
2022-09-14T11:35:50.832Z,1.00
2022-09-14T11:38:21.936Z,1.00
2022-09-14T11:40:57.593Z,1.00
2022-09-14T11:43:49.524Z,99.90
2022-09-14T11:46:22.226Z,99.90
2022-09-14T11:49:01.645Z,1.00
2022-09-14T11:51:57.101Z,1.00
2022-09-14T11:54:24.788Z,1.00
2022-09-14T11:57:00.065Z,1.00
2022-09-14T11:59:42.249Z,49.40
2022-09-14T12:02:30.222Z,1.00
2022-09-14T12:05:10.164Z,1.00
2022-09-14T12:07:43.455Z,1.00
2022-09-14T12:10:19.152Z,1.00
2022-09-14T12:13:18.414Z,99.90
2022-09-14T12:15:46.164Z,1.00
2022-09-14T12:18:16.938Z,1.00
2022-09-14T12:20:46.302Z,1.00
2022-09-14T12:23:39.296Z,1.00
2022-09-14T12:26:06.272Z,1.00
2022-09-14T12:28:36.122Z,1.00
2022-09-14T12:31:03.135Z,99.90
2022-09-14T12:33:33.236Z,99.90
2022-09-14T12:36:03.252Z,99.90
2022-09-14T12:38:33.101Z,1.00
2022-09-14T12:41:01.032Z,1.00
2022-09-14T12:43:34.079Z,1.00
2022-09-14T12:46:05.689Z,99.90
2022-09-14T12:48:47.907Z,1.00
2022-09-14T12:51:32.842Z,1.00
2022-09-14T12:54:08.483Z,1.00
2022-09-14T12:56:56.446Z,99.90
2022-09-14T12:59:53.181Z,99.90
2022-09-14T13:02:47.475Z,99.90
2022-09-14T13:05:18.063Z,99.90
2022-09-14T13:07:46.070Z,99.90
2022-09-14T13:10:46.536Z,1.00
2022-09-14T13:13:17.690Z,1.00
2022-09-14T13:15:50.903Z,26.20
2022-09-14T13:18:17.710Z,99.90
2022-09-14T13:20:57.257Z,1.00
2022-09-14T13:23:44.419Z,1.00
2022-09-14T13:26:16.224Z,1.00
2022-09-14T13:28:47.384Z,1.00
2022-09-14T13:31:18.820Z,1.00
2022-09-14T13:33:49.439Z,1.00
2022-09-14T13:36:20.208Z,1.00
2022-09-14T13:38:47.794Z,99.90
2022-09-14T13:41:20.249Z,99.90
2022-09-14T13:43:47.677Z,1.00
2022-09-14T13:46:19.672Z,1.00
2022-09-14T13:48:47.408Z,99.90
2022-09-14T13:51:15.124Z,1.00
2022-09-14T13:53:48.957Z,1.00
2022-09-14T13:56:31.156Z,1.00
2022-09-14T13:59:11.085Z,1.00
2022-09-14T14:01:56.188Z,88.20
2022-09-14T14:04:25.723Z,1.00
2022-09-14T14:07:14.584Z,1.00
2022-09-14T14:10:01.257Z,1.00
2022-09-14T14:12:29.176Z,1.00
2022-09-14T14:15:06.767Z,1.00
2022-09-14T14:17:36.877Z,99.90
2022-09-14T14:20:38.705Z,99.90
2022-09-14T14:23:08.524Z,1.00
2022-09-14T14:25:44.798Z,99.90
2022-09-14T14:28:25.334Z,99.90
2022-09-14T14:30:53.351Z,99.90
2022-09-14T14:33:20.632Z,99.90
2022-09-14T14:35:49.048Z,99.90
2022-09-14T14:38:16.286Z,99.90
2022-09-14T14:40:44.719Z,1.00
2022-09-14T14:43:19.032Z,99.90
2022-09-14T14:45:46.929Z,99.90
2022-09-14T14:48:14.008Z,99.90
2022-09-14T14:50:40.884Z,1.00
2022-09-14T14:53:09.001Z,99.90
2022-09-14T14:55:37.508Z,99.90
2022-09-14T14:58:08.616Z,99.90
2022-09-14T15:00:38.356Z,92.50
2022-09-14T15:03:05.652Z,99.90
2022-09-14T15:05:32.650Z,99.90
2022-09-14T15:08:00.253Z,99.90
2022-09-14T15:10:29.109Z,1.00
2022-09-14T15:12:56.169Z,1.00
2022-09-14T15:15:26.321Z,1.00
2022-09-14T15:17:53.862Z,1.00
2022-09-14T15:20:21.443Z,1.00
2022-09-14T15:22:48.823Z,1.00
2022-09-14T15:25:17.146Z,1.00
2022-09-14T15:27:43.967Z,1.00
2022-09-14T15:30:12.001Z,1.00
2022-09-14T15:32:40.036Z,1.00
2022-09-14T15:35:08.860Z,1.00
2022-09-14T15:37:35.837Z,1.00
2022-09-14T15:40:04.502Z,1.00
2022-09-14T15:42:31.454Z,1.00
2022-09-14T15:44:58.320Z,1.00
2022-09-14T15:47:25.244Z,99.90
2022-09-14T15:49:54.941Z,99.90
2022-09-14T15:52:21.880Z,72.60
2022-09-14T15:54:49.266Z,1.00
2022-09-14T15:57:16.242Z,1.00
2022-09-14T15:59:43.162Z,1.00
2022-09-14T16:02:12.328Z,1.00
2022-09-14T16:04:39.628Z,1.00
2022-09-14T16:07:09.856Z,1.00
2022-09-14T16:09:41.331Z,1.00
2022-09-14T16:12:10.080Z,1.00
2022-09-14T16:14:37.405Z,1.00
2022-09-14T16:17:05.415Z,1.00
2022-09-14T16:19:32.373Z,1.00
2022-09-14T16:21:59.341Z,1.00
2022-09-14T16:24:27.200Z,1.00
2022-09-14T16:26:54.517Z,1.00
2022-09-14T16:29:24.260Z,1.00
2022-09-14T16:31:52.243Z,1.00
2022-09-14T16:34:19.965Z,1.00
2022-09-14T16:36:47.580Z,1.00
2022-09-14T16:39:18.036Z,1.00
2022-09-14T16:41:45.409Z,1.00
2022-09-14T16:44:16.247Z,99.90
2022-09-14T16:46:43.934Z,13.80
2022-09-14T16:49:11.068Z,1.00
2022-09-14T16:51:38.607Z,1.00
2022-09-14T16:54:05.912Z,1.00
2022-09-14T16:56:35.098Z,1.00
2022-09-14T16:59:02.823Z,1.00
2022-09-14T17:01:35.247Z,1.00
2022-09-14T17:04:08.295Z,1.00
2022-09-14T17:06:36.780Z,53.00
2022-09-14T17:09:14.235Z,19.90
2022-09-14T17:11:41.874Z,68.00
2022-09-14T17:14:12.982Z,1.00
2022-09-14T17:16:40.493Z,1.00
2022-09-14T17:19:07.469Z,1.00
2022-09-14T17:21:39.676Z,1.00
2022-09-14T17:24:07.863Z,1.00
2022-09-14T17:26:35.610Z,1.00
2022-09-14T17:29:03.311Z,1.00
2022-09-14T17:31:33.559Z,1.00
2022-09-14T17:34:02.729Z,1.00
2022-09-14T17:36:30.113Z,99.90
2022-09-14T17:38:59.096Z,99.90
2022-09-14T17:41:31.239Z,1.00
2022-09-14T17:44:01.247Z,1.00
2022-09-14T17:46:28.683Z,99.90
2022-09-14T17:48:57.755Z,1.00
2022-09-14T17:51:26.812Z,1.00
2022-09-14T17:53:55.535Z,1.00
2022-09-14T17:56:24.148Z,1.00
2022-09-14T17:58:59.200Z,15.10
2022-09-14T18:01:26.238Z,1.00
2022-09-14T18:03:55.939Z,1.00
2022-09-14T18:06:24.198Z,1.00
2022-09-14T18:09:01.624Z,1.00
2022-09-14T18:11:29.892Z,1.00
2022-09-14T18:13:57.207Z,1.00
2022-09-14T18:16:25.015Z,1.00
2022-09-14T18:18:52.121Z,1.00
2022-09-14T18:21:19.515Z,99.90
2022-09-14T18:23:50.847Z,99.90
2022-09-14T18:26:18.204Z,1.00
2022-09-14T18:28:46.236Z,1.00
2022-09-14T18:31:15.841Z,99.90
2022-09-14T18:34:09.409Z,99.90
2022-09-14T18:36:37.206Z,99.90
2022-09-14T18:39:04.530Z,65.30
2022-09-14T18:41:33.972Z,44.20
2022-09-14T18:44:02.101Z,1.00
2022-09-14T18:46:29.306Z,9.10
2022-09-14T18:49:00.052Z,1.00
2022-09-14T18:51:28.932Z,1.00
2022-09-14T18:54:01.044Z,1.00
2022-09-14T18:56:29.130Z,66.20
2022-09-14T18:58:56.662Z,99.90
2022-09-14T19:01:23.633Z,99.90
2022-09-14T19:03:50.747Z,99.90
2022-09-14T19:06:18.841Z,99.90
2022-09-14T19:08:46.205Z,1.00
2022-09-14T19:11:19.109Z,1.00
2022-09-14T19:13:47.246Z,1.00
2022-09-14T19:16:17.042Z,99.90
2022-09-14T19:18:45.491Z,1.00
2022-09-14T19:21:31.521Z,1.00
2022-09-14T19:24:04.971Z,99.90
2022-09-14T19:26:45.328Z,68.90
2022-09-14T19:29:14.340Z,99.90
2022-09-14T19:31:41.721Z,1.00
2022-09-14T19:34:10.300Z,1.00
2022-09-14T19:36:37.187Z,99.90
2022-09-14T19:39:04.544Z,99.90
2022-09-14T19:41:33.142Z,99.90
2022-09-14T19:44:00.890Z,99.90
2022-09-14T19:46:28.547Z,99.90
2022-09-14T19:48:56.126Z,1.00
2022-09-14T19:51:26.520Z,1.00
2022-09-14T19:54:00.507Z,1.00
2022-09-14T19:56:29.968Z,14.00
2022-09-14T19:59:00.405Z,60.60
2022-09-14T20:01:29.480Z,61.40
2022-09-14T20:03:56.471Z,1.00
2022-09-14T20:06:26.037Z,10.00
2022-09-14T20:08:56.169Z,99.90
2022-09-14T20:11:24.582Z,99.90
2022-09-14T20:13:55.174Z,99.90
2022-09-14T20:16:25.640Z,99.90
2022-09-14T20:18:53.110Z,1.00
2022-09-14T20:21:24.898Z,1.00
2022-09-14T20:24:17.407Z,1.00
2022-09-14T20:26:49.668Z,1.00
2022-09-14T20:29:18.333Z,1.00
2022-09-14T20:31:45.976Z,1.00
2022-09-14T20:34:16.273Z,1.00
2022-09-14T20:36:43.209Z,1.00
2022-09-14T20:39:10.516Z,1.00
2022-09-14T20:41:38.369Z,1.00
2022-09-14T20:44:07.188Z,1.00
2022-09-14T20:46:47.034Z,1.00
2022-09-14T20:49:19.587Z,1.00
2022-09-14T20:51:46.818Z,1.00
2022-09-14T20:54:17.815Z,1.00
2022-09-14T20:56:46.387Z,1.00
2022-09-14T20:59:16.661Z,1.00
2022-09-14T21:01:45.718Z,50.70
2022-09-14T21:04:22.351Z,99.90
2022-09-14T21:06:55.291Z,99.90
2022-09-14T21:09:24.548Z,99.90
2022-09-14T21:11:52.295Z,99.90
2022-09-14T21:14:20.298Z,99.90
2022-09-14T21:16:49.980Z,99.90
2022-09-14T21:19:20.495Z,99.90
2022-09-14T21:21:48.711Z,99.90
2022-09-14T21:24:16.955Z,1.00
2022-09-14T21:26:47.171Z,1.00
2022-09-14T21:29:18.188Z,1.00
2022-09-14T21:31:45.044Z,1.00
2022-09-14T21:34:12.388Z,1.00
2022-09-14T21:36:42.138Z,1.00
2022-09-14T21:39:13.780Z,1.00
2022-09-14T21:41:42.581Z,1.00
2022-09-14T21:44:10.192Z,1.00
2022-09-14T21:46:37.512Z,1.00
2022-09-14T21:49:14.796Z,1.00
2022-09-14T21:51:42.533Z,1.00
2022-09-14T21:54:11.670Z,18.90
2022-09-14T21:56:43.115Z,66.10
2022-09-14T21:59:28.044Z,99.90
2022-09-14T22:01:55.053Z,99.90
2022-09-14T22:04:25.180Z,99.90
2022-09-14T22:06:53.140Z,99.90
2022-09-14T22:09:22.312Z,99.90
2022-09-14T22:11:49.271Z,99.90
2022-09-14T22:14:19.239Z,99.90
2022-09-14T22:16:48.856Z,1.00
2022-09-14T22:19:26.061Z,1.00
2022-09-14T22:21:53.716Z,1.00
2022-09-14T22:24:27.362Z,1.00
2022-09-14T22:26:54.730Z,1.00
2022-09-14T22:29:22.064Z,1.00
2022-09-14T22:31:49.292Z,1.00
2022-09-14T22:34:17.217Z,1.00
2022-09-14T22:36:44.511Z,1.00
2022-09-14T22:39:12.031Z,1.00
2022-09-14T22:41:39.933Z,99.90
2022-09-14T22:44:07.723Z,99.90
2022-09-14T22:46:35.457Z,63.40
2022-09-14T22:49:03.138Z,1.00
2022-09-14T22:51:30.694Z,1.00
2022-09-14T22:53:58.276Z,1.00
2022-09-14T22:56:30.173Z,1.00
2022-09-14T22:58:57.994Z,1.00
2022-09-14T23:01:28.585Z,1.00
2022-09-14T23:04:10.161Z,1.00
2022-09-14T23:06:44.082Z,1.00
2022-09-14T23:09:13.675Z,1.00
2022-09-14T23:11:42.156Z,1.00
2022-09-14T23:14:09.036Z,1.00
2022-09-14T23:16:35.969Z,1.00
2022-09-14T23:19:06.696Z,1.00
2022-09-14T23:21:34.717Z,1.00
2022-09-14T23:24:04.076Z,1.00
2022-09-14T23:26:31.481Z,1.00
2022-09-14T23:29:01.660Z,1.00
2022-09-14T23:31:30.211Z,1.00
2022-09-14T23:33:58.960Z,1.00
2022-09-14T23:36:26.352Z,1.00
2022-09-14T23:38:53.769Z,1.00
2022-09-14T23:41:23.063Z,1.00
2022-09-14T23:43:50.234Z,1.00
2022-09-14T23:46:17.958Z,1.00
2022-09-14T23:48:45.567Z,1.00
2022-09-14T23:51:13.625Z,1.00
2022-09-14T23:53:41.125Z,1.00
2022-09-14T23:56:08.359Z,1.00
2022-09-14T23:58:35.595Z,1.00
